Flight Track Log - Related Links

Times and Time Zones

All times are in EDT time to prevent confusion due to time zone crossing. See the SWA3535 flight status page for this flight to view local times or setup timezone preferences in your user account.

Time Position Orientation Groundspeed Altitude Reporting Facility
EDT Latitude Longitude Course Direction KTS MPH feet Rate Location/Type
Sun 09:26:34 PM 33.9500 -118.5167 270° West 231 266 3,200  Level Southern California TRACON
Sun 09:27:50 PM 33.9353 -118.6114 259° West 244 281 5,700 2,130 Climbing Los Angeles Center
Sun 09:28:52 PM 33.9769 -118.6792 307° West 271 312 8,100 1,659 Climbing Los Angeles Center
Sun 09:29:53 PM 34.0542 -118.6997 348° North 291 335 9,100 1,512 Climbing Los Angeles Center
Sun 09:30:55 PM 34.1189 -118.6511 32° Northeast 281 323 11,200 2,488 Climbing Los Angeles Center
Sun 09:31:56 PM 34.1981 -118.6403 North 300 345 14,200 2,683 Climbing Los Angeles Center
Sun 09:32:58 PM 34.2811 -118.6617 348° North 304 350 16,700 2,488 Climbing Los Angeles Center
Sun 09:33:59 PM 34.3811 -118.6872 348° North 366 421 19,300 2,607 Climbing Los Angeles Center
Sun 09:35:00 PM 34.4839 -118.7131 348° North 376 433 22,000 1,805 Climbing Los Angeles Center
Sun 09:36:02 PM 34.5886 -118.7525 343° North 397 457 23,000 1,512 Climbing Los Angeles Center
Sun 09:37:03 PM 34.6894 -118.8072 336° Northwest 395 455 25,100 2,293 Climbing Los Angeles Center
Sun 09:38:05 PM 34.8156 -118.8689 338° Northwest 405 466 27,700 2,049 Climbing Los Angeles Center
Sun 09:39:06 PM 34.9169 -118.9119 341° North 420 483 29,300 1,756 Climbing Los Angeles Center
Sun 09:40:08 PM 35.0297 -118.9622 340° North 428 493 31,300 2,000 Climbing Los Angeles Center
Sun 09:41:09 PM 35.1431 -119.0128 340° North 432 497 33,400 2,098 Climbing Los Angeles Center
Sun 09:42:11 PM 35.2767 -119.0731 340° North 431 496 35,600 2,049 Climbing Los Angeles Center
Sun 09:43:12 PM 35.3892 -119.1239 340° North 431 496 37,600 1,171 Climbing Los Angeles Center
Sun 09:44:14 PM 35.4989 -119.1736 340° North 428 493 38,000 195 Climbing Los Angeles Center
Sun 09:45:15 PM 35.6061 -119.2236 339° North 420 483 38,000  Level Los Angeles Center
Sun 09:46:17 PM 35.7144 -119.2728 340° North 418 481 38,000  Level Los Angeles Center
Sun 09:47:18 PM 35.8231 -119.3222 340° North 417 480 38,000  Level Los Angeles Center
Sun 09:47:51 PM 35.8864 -119.3508 340° North 417 480 38,000  Level Oakland Center
Sun 09:48:52 PM 35.9900 -119.4194 332° Northwest 420 483 38,000  Level Oakland Center
Sun 09:49:53 PM 36.0922 -119.4842 333° Northwest 419 482 38,000  Level Oakland Center
Sun 09:50:54 PM 36.1958 -119.5503 333° Northwest 420 483 38,000  Level Oakland Center
Sun 09:51:55 PM 36.2997 -119.6167 333° Northwest 420 483 38,000  Level Oakland Center
Sun 09:52:56 PM 36.4239 -119.6961 333° Northwest 421 484 38,000  Level Oakland Center
Sun 09:53:57 PM 36.5281 -119.7636 332° Northwest 421 484 38,000  Level Oakland Center
Sun 09:54:58 PM 36.6325 -119.8308 333° Northwest 422 486 38,000  Level Oakland Center
Sun 09:55:59 PM 36.7364 -119.8969 333° Northwest 422 486 38,000  Level Oakland Center
Sun 09:57:00 PM 36.8408 -119.9669 332° Northwest 423 487 38,000 -295 Level Oakland Center
Sun 09:58:01 PM 36.9444 -120.0367 332° Northwest 423 487 37,400 -1,672 Descending Oakland Center
Sun 09:59:02 PM 37.0483 -120.1042 333° Northwest 423 487 34,600 -2,951 Descending Oakland Center
Sun 10:00:03 PM 37.1503 -120.1689 333° Northwest 429 494 31,400 -3,148 Descending Oakland Center
Sun 10:01:04 PM 37.2592 -120.2417 332° Northwest 441 507 28,200 -3,148 Descending Oakland Center
Sun 10:02:05 PM 37.3853 -120.3256 332° Northwest 428 493 25,000 -2,230 Descending Oakland Center
Sun 10:02:57 PM 37.4667 -120.3833 331° Northwest 428 493 24,000 -964 Descending Northern Cal TRACON
Sun 10:03:57 PM 37.5500 -120.4833 316° Northwest 410 472 23,200 -1,400 Descending Northern Cal TRACON
Sun 10:04:57 PM 37.6333 -120.5667 322° Northwest 394 453 21,200 -2,050 Descending Northern Cal TRACON
Sun 10:05:57 PM 37.7333 -120.6500 327° Northwest 385 443 19,100 -2,050 Descending Northern Cal TRACON
Sun 10:06:57 PM 37.8167 -120.7333 322° Northwest 380 437 17,100 -1,550 Descending Northern Cal TRACON
Sun 10:07:57 PM 37.9000 -120.8167 322° Northwest 370 426 16,000 -700 Descending Northern Cal TRACON
Sun 10:08:57 PM 37.9667 -120.9000 315° West 368 423 15,700 -500 Descending Northern Cal TRACON
Sun 10:09:57 PM 38.0333 -121.0000 310° West 366 421 15,000 -750 Descending Northern Cal TRACON
Sun 10:10:57 PM 38.1000 -121.0833 315° West 363 418 14,200 -950 Descending Northern Cal TRACON
Sun 10:11:57 PM 38.1667 -121.1833 310° West 357 411 13,100 -1,000 Descending Northern Cal TRACON
Sun 10:13:03 PM 38.2500 -121.2833 317° Northwest 350 403 12,100 -950 Descending Northern Cal TRACON
Sun 10:13:57 PM 38.3000 -121.3667 307° West 350 403 11,200 -1,100 Descending Northern Cal TRACON
Sun 10:15:03 PM 38.3667 -121.4500 316° Northwest 294 338 9,900 -1,350 Descending Northern Cal TRACON
Sun 10:15:57 PM 38.4167 -121.5167 314° West 286 329 8,500 -1,474 Descending Northern Cal TRACON
Sun 10:16:57 PM 38.4667 -121.5667 322° Northwest 287 330 7,100 -1,550 Descending Northern Cal TRACON
Sun 10:17:57 PM 38.5333 -121.6333 322° Northwest 283 326 5,400 -1,400 Descending Northern Cal TRACON
Sun 10:18:57 PM 38.6000 -121.6667 339° North 262 302 4,300 -1,000 Descending Northern Cal TRACON
Sun 10:19:57 PM 38.6667 -121.7000 339° North 248 285 3,400 -1,000 Descending Northern Cal TRACON
Sun 10:20:57 PM 38.7333 -121.7000 360° North 230 265 2,300 -750 Descending Northern Cal TRACON
Sun 10:21:57 PM 38.7667 -121.6667 38° Northeast 195 224 1,900 -650 Descending Northern Cal TRACON
Sun 10:22:57 PM 38.7500 -121.6167 113° Southeast 170 196 1,000 -800 Descending Northern Cal TRACON
Sun 10:23:57 PM 38.7167 -121.6000 159° South 120 138 300 -700 Descending Northern Cal TRACON

Login

Don't have an account? Register now (free) for customized features, flight alerts, and more!